Time;durP1;ratioP1;P1;durP2;ratioP2;P2;SDS_P1;SDS_P2;PMS_P1;PMS_P2;Temp;Humidity;BMP_temperature;BMP_pressure;BME280_temperature;BME280_humidity;BME280_pressure;Samples;Min_cycle;Max_cycle;Signal;HPM_P1;HPM_P2
2023/12/16 00:01:32;;;;;;;10.00;1.67;;;8.10;99.90;;;;;;5009682;28;20026;-73
2023/12/16 00:03:58;;;;;;;16.60;2.28;;;8.10;99.90;;;;;;5006754;28;20029;-73
2023/12/16 00:06:23;;;;;;;9.50;1.80;;;8.10;99.90;;;;;;5010486;28;20026;-72
2023/12/16 00:08:49;;;;;;;10.95;1.75;;;8.10;99.90;;;;;;5010789;28;20033;-73
2023/12/16 00:11:14;;;;;;;14.55;2.10;;;8.10;99.90;;;;;;5008840;28;20482;-73
2023/12/16 00:13:40;;;;;;;10.98;2.05;;;8.10;99.90;;;;;;5004398;28;20029;-73
2023/12/16 00:16:06;;;;;;;12.90;2.03;;;8.10;99.90;;;;;;5009701;28;20029;-73
2023/12/16 00:18:32;;;;;;;13.18;1.70;;;8.10;99.90;;;;;;5009825;28;20088;-73
2023/12/16 00:20:58;;;;;;;15.57;1.92;;;8.10;99.90;;;;;;5008117;28;20502;-73
2023/12/16 00:23:23;;;;;;;11.38;1.52;;;8.00;99.90;;;;;;5009310;28;20118;-73
2023/12/16 00:25:49;;;;;;;16.13;1.70;;;8.00;99.90;;;;;;5008747;28;20367;-73
2023/12/16 00:28:14;;;;;;;11.52;1.67;;;8.00;99.90;;;;;;5008443;28;20041;-73
2023/12/16 00:30:40;;;;;;;11.52;2.22;;;8.00;99.90;;;;;;4988775;28;20067;-73
2023/12/16 00:33:05;;;;;;;12.30;1.52;;;8.00;99.90;;;;;;5008465;28;20394;-73
2023/12/16 00:35:31;;;;;;;9.02;1.55;;;8.00;99.90;;;;;;5009363;28;20030;-73
2023/12/16 00:37:56;;;;;;;10.88;1.52;;;8.00;99.90;;;;;;5008962;28;20038;-73
2023/12/16 00:40:23;;;;;;;12.27;2.20;;;8.00;99.90;;;;;;5006064;28;20038;-73
2023/12/16 00:42:48;;;;;;;14.35;1.80;;;8.00;99.90;;;;;;5007925;28;20056;-73
2023/12/16 00:45:14;;;;;;;9.93;1.67;;;8.00;99.90;;;;;;5008685;28;20100;-73
2023/12/16 00:47:39;;;;;;;12.27;2.03;;;8.00;99.90;;;;;;5004201;28;20037;-73
2023/12/16 00:50:05;;;;;;;11.02;1.50;;;8.00;99.90;;;;;;5008196;28;20021;-73
2023/12/16 00:52:31;;;;;;;11.75;1.88;;;8.00;99.90;;;;;;5006073;28;20498;-73
2023/12/16 00:54:57;;;;;;;14.50;1.63;;;8.00;99.90;;;;;;5009141;28;20059;-73
2023/12/16 00:57:22;;;;;;;11.02;1.75;;;8.10;99.90;;;;;;5008880;28;20072;-73
2023/12/16 00:59:48;;;;;;;13.50;2.83;;;8.10;99.90;;;;;;5008776;28;20041;-73
2023/12/16 01:02:13;;;;;;;11.65;2.38;;;8.10;99.90;;;;;;5014855;28;20445;-73
2023/12/16 01:04:39;;;;;;;4.97;1.58;;;8.10;99.90;;;;;;5011406;28;20088;-73
2023/12/16 01:07:04;;;;;;;11.65;1.85;;;8.10;99.90;;;;;;5009682;28;20029;-73
2023/12/16 01:09:30;;;;;;;11.85;1.45;;;8.00;99.90;;;;;;5013059;28;20026;-73
2023/12/16 01:11:56;;;;;;;13.40;2.10;;;8.10;99.90;;;;;;5012607;28;20080;-73
2023/12/16 01:14:21;;;;;;;11.82;2.08;;;8.00;99.90;;;;;;5010266;28;20023;-73
2023/12/16 01:16:47;;;;;;;14.15;2.15;;;8.00;99.90;;;;;;5009902;28;20022;-73
2023/12/16 01:19:12;;;;;;;6.60;1.30;;;8.00;99.90;;;;;;5009262;28;20042;-73
2023/12/16 01:21:42;;;;;;;12.55;1.67;;;8.00;99.90;;;;;;5010329;28;20026;-73
2023/12/16 01:24:08;;;;;;;10.10;2.85;;;8.00;99.90;;;;;;5011510;28;20030;-73
2023/12/16 01:26:33;;;;;;;13.23;2.10;;;8.00;99.90;;;;;;5008025;28;20049;-73
2023/12/16 01:28:59;;;;;;;15.30;2.47;;;8.00;99.90;;;;;;5005234;28;20030;-73
2023/12/16 01:31:25;;;;;;;10.82;2.22;;;8.00;99.90;;;;;;5010622;28;20018;-73
2023/12/16 01:33:51;;;;;;;11.77;2.08;;;7.90;99.90;;;;;;5008233;28;20033;-73
2023/12/16 01:36:17;;;;;;;10.00;2.10;;;8.00;99.90;;;;;;5011051;28;20030;-73
2023/12/16 01:38:42;;;;;;;8.57;1.67;;;7.90;99.90;;;;;;5006466;28;20037;-73
2023/12/16 01:41:08;;;;;;;14.48;2.03;;;7.90;99.90;;;;;;5009000;28;20485;-73
2023/12/16 01:43:33;;;;;;;10.82;2.08;;;8.00;99.90;;;;;;5013445;28;20393;-73
2023/12/16 01:46:04;;;;;;;9.90;1.52;;;8.00;99.90;;;;;;5010771;28;20092;-73
2023/12/16 01:48:33;;;;;;;12.38;2.15;;;8.00;99.90;;;;;;5007507;28;20428;-73
2023/12/16 01:50:59;;;;;;;12.98;2.03;;;7.90;99.90;;;;;;5012570;28;20068;-73
2023/12/16 01:53:26;;;;;;;11.32;2.40;;;7.90;99.90;;;;;;5005586;28;20454;-73
2023/12/16 01:55:53;;;;;;;7.80;1.60;;;7.80;99.90;;;;;;5012098;28;20029;-73
2023/12/16 01:58:19;;;;;;;11.82;2.10;;;7.80;99.90;;;;;;5007459;28;20025;-73
2023/12/16 02:00:47;;;;;;;14.20;2.67;;;7.70;99.90;;;;;;5012094;28;20036;-73
2023/12/16 02:03:17;;;;;;;15.00;2.17;;;7.60;99.90;;;;;;5010282;28;20018;-73
2023/12/16 02:05:43;;;;;;;10.93;2.58;;;7.60;99.90;;;;;;5012455;28;20379;-73
2023/12/16 02:08:09;;;;;;;8.07;2.13;;;7.60;99.90;;;;;;5011021;28;20029;-73
2023/12/16 02:10:34;;;;;;;17.63;2.30;;;7.50;99.90;;;;;;5013253;28;20057;-73
2023/12/16 02:13:03;;;;;;;15.45;2.65;;;7.50;99.90;;;;;;5008681;28;20022;-73
2023/12/16 02:15:29;;;;;;;12.93;2.65;;;7.50;99.90;;;;;;5014387;28;20030;-73
2023/12/16 02:17:55;;;;;;;15.68;2.78;;;7.50;99.90;;;;;;5000648;28;20557;-73
2023/12/16 02:20:20;;;;;;;15.38;2.85;;;7.50;99.90;;;;;;5009421;28;20064;-73
2023/12/16 02:22:47;;;;;;;16.00;2.88;;;7.50;99.90;;;;;;5010419;28;20037;-73
2023/12/16 02:25:15;;;;;;;16.15;3.30;;;7.50;99.90;;;;;;5012578;28;20033;-73
2023/12/16 02:27:49;;;;;;;10.07;2.22;;;7.40;99.90;;;;;;5012389;28;20494;-73
2023/12/16 02:30:15;;;;;;;11.10;3.15;;;7.30;99.90;;;;;;5013013;28;20029;-73
2023/12/16 02:32:44;;;;;;;16.25;3.17;;;7.30;99.90;;;;;;5013617;28;20029;-73
2023/12/16 02:35:09;;;;;;;16.23;3.65;;;7.20;99.90;;;;;;5010576;28;20084;-73
2023/12/16 02:37:35;;;;;;;17.55;3.40;;;7.20;99.90;;;;;;5007985;28;20026;-73
2023/12/16 02:40:00;;;;;;;16.45;3.50;;;7.10;99.90;;;;;;5009974;28;20045;-73
2023/12/16 02:42:27;;;;;;;18.33;3.33;;;7.10;99.90;;;;;;5011693;28;20034;-73
2023/12/16 02:44:52;;;;;;;13.18;3.88;;;7.00;99.90;;;;;;5008722;28;20030;-73
2023/12/16 02:47:18;;;;;;;13.63;3.42;;;6.90;99.90;;;;;;5002547;28;20046;-73
2023/12/16 02:49:44;;;;;;;10.32;3.35;;;6.90;99.90;;;;;;5010792;28;20041;-73
2023/12/16 02:52:10;;;;;;;13.05;3.22;;;6.90;99.90;;;;;;5012107;28;20014;-73
2023/12/16 02:54:35;;;;;;;18.65;3.97;;;6.80;99.90;;;;;;5009594;28;20033;-73
2023/12/16 02:57:01;;;;;;;12.00;2.92;;;6.80;99.90;;;;;;5005968;28;20494;-73
2023/12/16 02:59:26;;;;;;;11.52;2.75;;;6.70;99.90;;;;;;5012458;28;20083;-73
2023/12/16 03:01:52;;;;;;;15.30;3.35;;;6.70;99.90;;;;;;5007221;28;20037;-73
2023/12/16 03:04:18;;;;;;;15.68;3.67;;;6.70;99.90;;;;;;5008346;28;20042;-73
2023/12/16 03:06:44;;;;;;;13.20;2.90;;;6.60;99.90;;;;;;5010458;28;20032;-73
2023/12/16 03:09:10;;;;;;;12.50;3.08;;;6.60;99.90;;;;;;4990538;28;20045;-73
2023/12/16 03:11:36;;;;;;;9.73;2.20;;;6.60;99.90;;;;;;4998524;28;20026;-73
2023/12/16 03:14:01;;;;;;;11.63;2.75;;;6.60;99.90;;;;;;5000103;28;21645;-73
2023/12/16 03:16:27;;;;;;;9.68;2.08;;;6.60;99.90;;;;;;5002170;28;20592;-73
2023/12/16 03:18:52;;;;;;;11.50;2.45;;;6.60;99.90;;;;;;4997255;28;20038;-73
2023/12/16 03:21:18;;;;;;;10.82;2.85;;;6.60;99.90;;;;;;4998828;28;20241;-73
2023/12/16 03:23:44;;;;;;;11.27;3.28;;;6.60;99.90;;;;;;4998521;28;20030;-73
2023/12/16 03:26:09;;;;;;;11.27;2.17;;;6.60;99.90;;;;;;5002172;28;20026;-73
2023/12/16 03:28:35;;;;;;;9.15;2.03;;;6.50;99.90;;;;;;4995636;28;20398;-73
2023/12/16 03:31:00;;;;;;;13.35;2.90;;;6.50;99.90;;;;;;4999132;28;20026;-73
2023/12/16 03:33:26;;;;;;;7.38;2.50;;;6.50;99.90;;;;;;5005347;28;20037;-73
2023/12/16 03:35:51;;;;;;;10.60;2.63;;;6.50;99.90;;;;;;5011085;28;20049;-73
2023/12/16 03:38:17;;;;;;;13.32;2.40;;;6.50;99.90;;;;;;5004893;28;20025;-73
2023/12/16 03:40:43;;;;;;;8.75;2.28;;;6.50;99.90;;;;;;5007120;28;20090;-73
2023/12/16 03:43:08;;;;;;;11.60;2.22;;;6.50;99.90;;;;;;5000954;28;20497;-73
2023/12/16 03:45:41;;;;;;;12.73;2.58;;;6.50;99.90;;;;;;5081589;28;20422;-72
2023/12/16 03:48:08;;;;;;;11.98;3.08;;;6.50;99.90;;;;;;5072212;28;20025;-72
2023/12/16 03:50:33;;;;;;;11.35;2.53;;;6.50;99.90;;;;;;5075062;28;20407;-72
2023/12/16 03:52:59;;;;;;;11.77;2.40;;;6.50;99.90;;;;;;5073877;28;20020;-72
2023/12/16 03:55:24;;;;;;;11.43;2.60;;;6.50;99.90;;;;;;5098457;28;20756;-72
2023/12/16 03:57:50;;;;;;;9.90;2.58;;;6.50;99.90;;;;;;5091462;28;20061;-72
2023/12/16 04:00:15;;;;;;;15.32;3.28;;;6.50;99.90;;;;;;5096746;28;20054;-72
2023/12/16 04:02:41;;;;;;;16.77;3.00;;;6.50;99.90;;;;;;5094578;28;20036;-72
2023/12/16 04:05:07;;;;;;;14.70;2.65;;;6.50;99.90;;;;;;5092600;28;20044;-72
2023/12/16 04:07:33;;;;;;;9.35;2.15;;;6.50;99.90;;;;;;5085460;28;20029;-72
2023/12/16 04:09:59;;;;;;;11.43;2.45;;;6.50;99.90;;;;;;5079531;28;20169;-72
2023/12/16 04:12:25;;;;;;;14.68;3.50;;;6.50;99.90;;;;;;5090358;28;20020;-72
2023/12/16 04:14:51;;;;;;;13.15;3.08;;;6.60;99.90;;;;;;5084093;28;20396;-72
2023/12/16 04:17:16;;;;;;;12.73;3.15;;;6.60;99.90;;;;;;5099822;28;20099;-72
2023/12/16 04:19:52;;;;;;;15.90;2.25;;;6.70;99.90;;;;;;5072443;28;20036;-72
2023/12/16 04:22:18;;;;;;;17.13;2.75;;;6.70;99.90;;;;;;5084063;28;20031;-74
2023/12/16 04:24:44;;;;;;;16.13;3.30;;;6.80;99.90;;;;;;5075005;28;20074;-72
2023/12/16 04:27:10;;;;;;;11.30;2.92;;;6.80;99.90;;;;;;5081618;28;20032;-72
2023/12/16 04:29:36;;;;;;;13.45;3.60;;;6.80;99.90;;;;;;5056045;28;20029;-72
2023/12/16 04:32:02;;;;;;;17.20;3.55;;;6.80;99.90;;;;;;5077582;28;20041;-72
2023/12/16 04:34:27;;;;;;;12.85;2.70;;;6.90;99.90;;;;;;5068326;28;20384;-72
2023/12/16 04:36:53;;;;;;;16.27;3.40;;;6.90;99.90;;;;;;5060466;28;20086;-72
2023/12/16 04:39:19;;;;;;;16.73;3.15;;;6.90;99.90;;;;;;5062501;28;20662;-72
2023/12/16 04:41:44;;;;;;;12.57;2.78;;;6.90;99.90;;;;;;5072073;28;20027;-72
2023/12/16 04:44:10;;;;;;;16.13;3.08;;;7.00;99.90;;;;;;5094055;28;20079;-72
2023/12/16 04:46:36;;;;;;;10.43;2.85;;;7.00;99.90;;;;;;5106506;28;20097;-72
2023/12/16 04:49:01;;;;;;;17.95;3.92;;;7.00;99.90;;;;;;5090540;28;20038;-72
2023/12/16 04:51:27;;;;;;;15.85;3.13;;;7.00;99.90;;;;;;5079931;28;20387;-72
2023/12/16 04:53:53;;;;;;;16.52;3.42;;;7.00;99.90;;;;;;5090565;28;20093;-72
2023/12/16 04:56:18;;;;;;;13.43;2.88;;;7.00;99.90;;;;;;5075990;28;20029;-72
2023/12/16 04:58:44;;;;;;;16.25;2.75;;;7.00;99.90;;;;;;5065249;28;20032;-72
2023/12/16 05:01:10;;;;;;;17.65;3.45;;;7.00;99.90;;;;;;5054845;28;20250;-72
2023/12/16 05:03:36;;;;;;;14.63;3.15;;;6.90;99.90;;;;;;5043212;28;20045;-72
2023/12/16 05:06:02;;;;;;;15.52;2.95;;;6.90;99.90;;;;;;5043072;28;20108;-72
2023/12/16 05:08:28;;;;;;;14.77;3.42;;;6.90;99.90;;;;;;5056325;28;20476;-72
2023/12/16 05:10:53;;;;;;;12.48;2.83;;;6.90;99.90;;;;;;5049195;28;20043;-72
2023/12/16 05:13:19;;;;;;;17.08;3.17;;;6.80;99.90;;;;;;5052507;28;20025;-72
2023/12/16 05:15:44;;;;;;;15.13;3.30;;;6.70;99.90;;;;;;5070441;28;20115;-72
2023/12/16 05:18:10;;;;;;;12.27;2.90;;;6.70;99.90;;;;;;5051187;28;20028;-72
2023/12/16 05:20:37;;;;;;;19.67;3.97;;;6.60;99.90;;;;;;5041844;28;23115;-72
2023/12/16 05:23:02;;;;;;;13.75;3.20;;;6.60;99.90;;;;;;5059302;28;20027;-72
2023/12/16 05:25:29;;;;;;;18.90;3.53;;;6.60;99.90;;;;;;5078327;28;20036;-72
2023/12/16 05:27:56;;;;;;;14.80;2.95;;;6.50;99.90;;;;;;5068894;28;20032;-72
2023/12/16 05:30:21;;;;;;;13.43;4.13;;;6.50;99.90;;;;;;5065188;28;20482;-72
2023/12/16 05:32:47;;;;;;;16.67;3.65;;;6.50;99.90;;;;;;5066436;28;20101;-72
2023/12/16 05:35:13;;;;;;;13.15;2.85;;;6.50;99.90;;;;;;5066223;28;20033;-72
2023/12/16 05:37:39;;;;;;;16.85;3.20;;;6.50;99.90;;;;;;5071702;28;20503;-72
2023/12/16 05:40:05;;;;;;;17.80;3.85;;;6.50;99.90;;;;;;5070626;28;20032;-72
2023/12/16 05:42:30;;;;;;;24.67;4.38;;;6.50;99.90;;;;;;5064866;28;20033;-72
2023/12/16 05:44:56;;;;;;;16.38;3.78;;;6.60;99.90;;;;;;5082152;28;20055;-72
2023/12/16 05:47:23;;;;;;;16.48;3.30;;;6.50;99.90;;;;;;5087971;28;20090;-74
2023/12/16 05:49:48;;;;;;;11.57;2.80;;;6.50;99.90;;;;;;5063867;28;20033;-72
2023/12/16 05:52:14;;;;;;;26.98;3.70;;;6.50;99.90;;;;;;5069730;28;20103;-72
2023/12/16 05:54:40;;;;;;;17.98;3.75;;;6.50;99.90;;;;;;5068982;28;20040;-73
2023/12/16 05:57:05;;;;;;;15.88;4.03;;;6.50;99.90;;;;;;5063315;28;20017;-73
2023/12/16 05:59:31;;;;;;;19.08;3.63;;;6.50;99.90;;;;;;5054217;28;20468;-72
2023/12/16 06:01:56;;;;;;;18.92;3.70;;;6.40;99.90;;;;;;5056810;28;20102;-73
2023/12/16 06:04:22;;;;;;;12.80;3.17;;;6.50;99.90;;;;;;5096473;27;20033;-72
2023/12/16 06:06:48;;;;;;;15.88;3.13;;;6.50;99.90;;;;;;5073548;28;20035;-73
2023/12/16 06:09:14;;;;;;;26.33;3.80;;;6.50;99.90;;;;;;5069130;28;20032;-73
2023/12/16 06:11:39;;;;;;;16.80;3.28;;;6.50;99.90;;;;;;5065829;28;20467;-73
2023/12/16 06:14:05;;;;;;;14.57;3.22;;;6.50;99.90;;;;;;5069912;28;20024;-73
2023/12/16 06:16:31;;;;;;;13.63;2.95;;;6.50;99.90;;;;;;5068967;28;20017;-72
2023/12/16 06:18:56;;;;;;;13.65;2.63;;;6.50;99.90;;;;;;5071834;28;20396;-73
2023/12/16 06:21:22;;;;;;;18.70;3.15;;;6.50;99.90;;;;;;5069848;28;20035;-72
2023/12/16 06:23:47;;;;;;;20.23;3.40;;;6.50;99.90;;;;;;5083446;28;20032;-73
2023/12/16 06:26:13;;;;;;;12.35;3.45;;;6.50;99.90;;;;;;5064762;28;20481;-72
2023/12/16 06:28:38;;;;;;;15.35;3.05;;;6.50;99.90;;;;;;5057352;28;20029;-73
2023/12/16 06:31:04;;;;;;;12.57;3.47;;;6.50;99.90;;;;;;5064115;28;20039;-72
2023/12/16 06:33:30;;;;;;;17.83;2.97;;;6.50;99.90;;;;;;5051534;28;20029;-73
2023/12/16 06:35:55;;;;;;;20.50;3.33;;;6.50;99.90;;;;;;5065224;28;20024;-73
2023/12/16 06:38:21;;;;;;;13.57;2.75;;;6.40;99.90;;;;;;5075495;28;20428;-72
2023/12/16 06:40:46;;;;;;;16.48;3.60;;;6.50;99.90;;;;;;5070749;28;20107;-73
2023/12/16 06:43:12;;;;;;;13.82;3.15;;;6.40;99.90;;;;;;5077682;28;20028;-73
2023/12/16 06:45:38;;;;;;;20.05;3.38;;;6.40;99.90;;;;;;5074551;28;20132;-73
2023/12/16 06:48:04;;;;;;;13.75;2.70;;;6.40;99.90;;;;;;5074650;28;20029;-74
2023/12/16 06:50:30;;;;;;;17.23;2.83;;;6.40;99.90;;;;;;5062228;28;20443;-73
2023/12/16 06:52:55;;;;;;;17.63;3.65;;;6.40;99.90;;;;;;5075309;28;20055;-73
2023/12/16 06:55:21;;;;;;;13.00;2.72;;;6.40;99.90;;;;;;5075120;28;20029;-73
2023/12/16 06:57:47;;;;;;;16.50;2.25;;;6.40;99.90;;;;;;5067363;28;20035;-74
2023/12/16 07:00:13;;;;;;;12.90;3.08;;;6.40;99.90;;;;;;5062992;28;20271;-73
2023/12/16 07:02:43;;;;;;;13.60;2.90;;;6.50;99.90;;;;;;5071867;28;20037;-73
2023/12/16 07:05:10;;;;;;;18.15;2.50;;;6.40;99.90;;;;;;5070610;28;20043;-73
2023/12/16 07:07:36;;;;;;;15.88;3.00;;;6.50;99.90;;;;;;5075755;28;20025;-74
2023/12/16 07:10:03;;;;;;;16.30;2.35;;;6.50;99.90;;;;;;5075586;28;20085;-73
2023/12/16 07:12:29;;;;;;;16.13;2.50;;;6.40;99.90;;;;;;5066410;28;20111;-73
2023/12/16 07:14:55;;;;;;;16.38;3.05;;;6.40;99.90;;;;;;5055759;28;20618;-73
2023/12/16 07:17:20;;;;;;;16.02;2.53;;;6.40;99.90;;;;;;5056295;28;20298;-73
2023/12/16 07:19:46;;;;;;;15.20;3.13;;;6.40;99.90;;;;;;5067611;28;20162;-74
2023/12/16 07:22:16;;;;;;;16.33;3.20;;;6.40;99.90;;;;;;5066973;28;20016;-73
2023/12/16 07:24:42;;;;;;;15.48;2.65;;;6.40;99.90;;;;;;5071939;28;20047;-73
2023/12/16 07:27:08;;;;;;;14.80;2.28;;;6.40;99.90;;;;;;5068663;28;20029;-73
2023/12/16 07:29:36;;;;;;;14.88;2.92;;;6.40;99.90;;;;;;5062165;28;20140;-71
2023/12/16 07:32:03;;;;;;;18.08;2.80;;;6.40;99.90;;;;;;5062963;28;20424;-73
2023/12/16 07:34:29;;;;;;;13.20;3.25;;;6.30;99.90;;;;;;5064215;28;20032;-72
2023/12/16 07:36:56;;;;;;;20.85;2.38;;;6.40;99.90;;;;;;5056556;28;21144;-73
2023/12/16 07:39:22;;;;;;;21.85;3.03;;;6.30;99.90;;;;;;5086204;28;20034;-72
2023/12/16 07:41:48;;;;;;;15.90;4.10;;;6.30;99.90;;;;;;5066888;28;20028;-72
2023/12/16 07:44:14;;;;;;;17.45;3.05;;;6.40;99.90;;;;;;5055547;28;20399;-72
2023/12/16 07:46:40;;;;;;;14.77;2.67;;;6.30;99.90;;;;;;5073963;28;20028;-72
2023/12/16 07:49:06;;;;;;;10.82;1.85;;;6.30;99.90;;;;;;5079688;28;20090;-72
2023/12/16 07:51:32;;;;;;;13.15;2.90;;;6.30;99.90;;;;;;5063606;28;20028;-72
2023/12/16 07:53:57;;;;;;;13.50;2.65;;;6.30;99.90;;;;;;5077449;28;20085;-72
2023/12/16 07:56:26;;;;;;;15.85;2.47;;;6.30;99.90;;;;;;5076254;28;20036;-73
2023/12/16 07:58:52;;;;;;;15.13;2.15;;;6.30;99.90;;;;;;5079156;28;20301;-71
2023/12/16 08:01:26;;;;;;;11.57;1.92;;;6.40;99.90;;;;;;5066263;28;20480;-72
2023/12/16 08:03:52;;;;;;;12.02;2.72;;;6.40;99.90;;;;;;5064419;28;20043;-72
2023/12/16 08:06:17;;;;;;;14.50;2.92;;;6.50;99.90;;;;;;5056062;28;20029;-73
2023/12/16 08:08:45;;;;;;;17.05;2.65;;;6.50;99.90;;;;;;5057408;28;20033;-73
2023/12/16 08:11:11;;;;;;;13.10;1.90;;;6.60;99.90;;;;;;5063861;28;20021;-72
2023/12/16 08:13:37;;;;;;;14.73;3.05;;;6.60;99.90;;;;;;5071670;28;20062;-72
2023/12/16 08:16:11;;;;;;;15.98;2.03;;;6.60;99.90;;;;;;5084294;28;20526;-72
2023/12/16 08:18:37;;;;;;;13.98;2.28;;;6.70;99.90;;;;;;5065587;28;20025;-72
2023/12/16 08:21:03;;;;;;;17.17;2.53;;;6.80;99.90;;;;;;5064520;28;20500;-72
2023/12/16 08:23:29;;;;;;;15.73;3.22;;;6.80;99.90;;;;;;5065103;28;20037;-72
2023/12/16 08:25:54;;;;;;;13.95;1.98;;;6.90;99.90;;;;;;5070909;28;20285;-72
2023/12/16 08:28:20;;;;;;;14.07;2.35;;;6.90;99.90;;;;;;5071793;28;20028;-72
2023/12/16 08:30:46;;;;;;;17.65;2.75;;;6.90;99.90;;;;;;5072394;28;20458;-72
2023/12/16 08:33:12;;;;;;;14.05;2.53;;;7.00;99.90;;;;;;5063808;28;20029;-73
2023/12/16 08:35:42;;;;;;;12.50;2.13;;;7.00;99.90;;;;;;5070602;28;20044;-73
2023/12/16 08:38:08;;;;;;;21.00;3.83;;;7.10;99.90;;;;;;5066249;28;20104;-73
2023/12/16 08:40:34;;;;;;;16.33;2.42;;;7.10;99.90;;;;;;5065636;28;20170;-73
2023/12/16 08:42:59;;;;;;;14.73;2.10;;;7.20;99.90;;;;;;5063665;28;20041;-73
2023/12/16 08:45:25;;;;;;;15.15;2.05;;;7.20;99.90;;;;;;5071255;28;20504;-73
2023/12/16 08:47:50;;;;;;;16.30;3.03;;;7.20;99.90;;;;;;5064287;28;20032;-71
2023/12/16 08:50:16;;;;;;;21.30;2.20;;;7.30;99.90;;;;;;5072975;28;20384;-73
2023/12/16 08:52:42;;;;;;;18.60;3.55;;;7.30;99.90;;;;;;5064704;28;20029;-73
2023/12/16 08:55:08;;;;;;;11.95;2.38;;;7.40;99.90;;;;;;5069880;28;20024;-73
2023/12/16 08:57:33;;;;;;;13.65;2.85;;;7.50;99.90;;;;;;5068799;28;20044;-73
2023/12/16 08:59:59;;;;;;;12.55;2.38;;;7.50;99.90;;;;;;5068788;28;20431;-73
2023/12/16 09:02:24;;;;;;;15.95;2.63;;;7.70;99.90;;;;;;5066787;28;20025;-73
2023/12/16 09:04:53;;;;;;;14.88;2.55;;;7.80;99.90;;;;;;5067258;28;20092;-73
2023/12/16 09:07:19;;;;;;;9.70;2.00;;;7.90;99.90;;;;;;5066657;28;20021;-73
2023/12/16 09:09:44;;;;;;;9.45;1.92;;;7.90;99.90;;;;;;5061716;28;20059;-73
2023/12/16 09:12:10;;;;;;;12.32;1.98;;;8.00;99.90;;;;;;5066520;28;20029;-73
2023/12/16 09:14:37;;;;;;;12.85;2.58;;;8.10;99.90;;;;;;5064729;28;20064;-73
2023/12/16 09:17:03;;;;;;;12.00;2.10;;;8.10;99.90;;;;;;5060046;28;20247;-73
2023/12/16 09:19:29;;;;;;;11.82;2.30;;;8.20;99.90;;;;;;5057675;28;20035;-74
2023/12/16 09:21:54;;;;;;;12.23;2.33;;;8.20;99.90;;;;;;5056840;28;20130;-74
2023/12/16 09:24:20;;;;;;;13.07;2.17;;;8.20;99.90;;;;;;5055828;28;20059;-74
2023/12/16 09:26:47;;;;;;;11.73;2.30;;;8.30;99.90;;;;;;5061448;28;20073;-74
2023/12/16 09:29:12;;;;;;;17.92;2.72;;;8.30;99.90;;;;;;5057091;28;20057;-73
2023/12/16 09:31:38;;;;;;;9.73;2.22;;;8.30;99.90;;;;;;5055842;28;20053;-73
2023/12/16 09:34:04;;;;;;;16.23;3.08;;;8.30;99.90;;;;;;5053968;28;20025;-73
2023/12/16 09:36:30;;;;;;;13.23;2.75;;;8.30;99.90;;;;;;5057213;28;20119;-74
2023/12/16 09:38:59;;;;;;;12.95;2.85;;;8.40;99.90;;;;;;5057996;28;20029;-74
2023/12/16 09:41:29;;;;;;;16.55;3.78;;;8.40;99.90;;;;;;5052816;28;20432;-73
2023/12/16 09:43:58;;;;;;;18.48;4.13;;;8.40;99.90;;;;;;5062884;28;20082;-74
2023/12/16 09:46:28;;;;;;;15.80;4.63;;;8.40;99.90;;;;;;5062904;28;20024;-73
2023/12/16 09:48:54;;;;;;;21.30;6.32;;;8.50;99.90;;;;;;5056801;28;20021;-73
2023/12/16 09:51:24;;;;;;;16.48;4.93;;;8.50;99.90;;;;;;5053911;28;20048;-73
2023/12/16 09:53:50;;;;;;;20.33;4.57;;;8.60;99.90;;;;;;5057511;28;20103;-73
2023/12/16 09:56:17;;;;;;;16.17;5.07;;;8.60;99.90;;;;;;5054959;28;20111;-73
2023/12/16 09:58:45;;;;;;;26.73;6.95;;;8.70;99.90;;;;;;5057002;28;20029;-73
2023/12/16 10:01:11;;;;;;;17.35;5.82;;;8.60;99.90;;;;;;5057362;28;20083;-73
2023/12/16 10:03:38;;;;;;;18.85;5.57;;;8.60;99.90;;;;;;5054549;28;20059;-73
2023/12/16 10:06:08;;;;;;;23.88;6.35;;;8.70;99.90;;;;;;5057391;28;20162;-72
2023/12/16 10:08:38;;;;;;;22.88;7.05;;;8.70;99.90;;;;;;5053400;28;20087;-74
2023/12/16 10:11:05;;;;;;;17.85;7.35;;;8.70;99.90;;;;;;5057898;28;20508;-73
2023/12/16 10:13:59;;;;;;;17.73;6.72;;;8.70;99.90;;;;;;5054553;28;20865;-73
2023/12/16 10:16:26;;;;;;;22.63;6.90;;;8.70;99.90;;;;;;5059110;28;20435;-73
2023/12/16 10:18:53;;;;;;;22.35;7.72;;;8.60;99.90;;;;;;5054775;28;20025;-73
2023/12/16 10:21:30;;;;;;;15.20;6.43;;;8.60;99.90;;;;;;5053291;28;20063;-73
2023/12/16 10:24:00;;;;;;;23.73;6.50;;;8.60;99.90;;;;;;5064000;28;20395;-73
2023/12/16 10:26:30;;;;;;;16.92;6.82;;;8.60;99.90;;;;;;5060219;28;20032;-74
2023/12/16 10:28:57;;;;;;;23.98;7.25;;;8.60;99.90;;;;;;5060440;28;20021;-74
2023/12/16 10:31:24;;;;;;;22.65;8.07;;;8.60;99.90;;;;;;5060249;28;20033;-74
2023/12/16 10:33:51;;;;;;;27.52;7.55;;;8.70;99.90;;;;;;5057811;28;20043;-73
2023/12/16 10:36:16;;;;;;;21.30;7.15;;;8.60;99.90;;;;;;5057919;28;20074;-73
2023/12/16 10:38:42;;;;;;;26.42;7.45;;;8.70;99.90;;;;;;5057547;28;20029;-72
2023/12/16 10:41:09;;;;;;;26.98;9.05;;;8.70;99.90;;;;;;5057531;28;20028;-73
2023/12/16 10:43:34;;;;;;;18.95;7.35;;;8.80;99.90;;;;;;5057195;28;20093;-73
2023/12/16 10:46:04;;;;;;;23.33;7.47;;;8.80;99.90;;;;;;5058351;28;20040;-73
2023/12/16 10:48:33;;;;;;;23.90;7.85;;;8.90;99.90;;;;;;5056024;28;20091;-72
2023/12/16 10:51:02;;;;;;;23.35;7.30;;;9.00;99.90;;;;;;5059390;28;20025;-73
2023/12/16 10:53:52;;;;;;;25.10;7.55;;;9.00;99.90;;;;;;5055652;28;20024;-73
2023/12/16 10:56:30;;;;;;;19.23;7.43;;;9.10;99.90;;;;;;5053436;28;20469;-74
2023/12/16 10:59:10;;;;;;;27.63;8.40;;;9.20;99.90;;;;;;5049311;28;20025;-73
2023/12/16 11:01:42;;;;;;;26.67;8.23;;;9.20;99.90;;;;;;5052731;28;20049;-73
2023/12/16 11:04:14;;;;;;;25.90;7.28;;;9.30;99.90;;;;;;5060295;28;20024;-73
2023/12/16 11:06:51;;;;;;;25.48;8.57;;;9.30;99.90;;;;;;5057844;28;20082;-72
2023/12/16 11:09:18;;;;;;;26.00;8.63;;;9.40;99.90;;;;;;5082298;28;20054;-73
2023/12/16 11:11:45;;;;;;;25.58;8.48;;;9.40;99.90;;;;;;5075827;28;20101;-73
2023/12/16 11:14:11;;;;;;;25.50;8.77;;;9.40;99.90;;;;;;5059492;28;20485;-72
2023/12/16 11:16:41;;;;;;;32.38;9.25;;;9.30;99.90;;;;;;5056452;28;20071;-72
2023/12/16 11:19:10;;;;;;;21.02;8.00;;;9.30;99.90;;;;;;5063609;28;20025;-73
2023/12/16 11:21:40;;;;;;;25.90;8.82;;;9.30;99.90;;;;;;5068780;28;20028;-72
2023/12/16 11:24:06;;;;;;;25.63;9.05;;;9.30;99.90;;;;;;5069309;28;20033;-73
2023/12/16 11:26:34;;;;;;;22.42;8.70;;;9.30;99.90;;;;;;5059230;28;20032;-73
2023/12/16 11:29:02;;;;;;;28.30;10.48;;;9.30;99.90;;;;;;5067324;28;20020;-73
2023/12/16 11:31:29;;;;;;;29.70;9.98;;;9.30;99.90;;;;;;5062656;28;20043;-73
2023/12/16 11:33:55;;;;;;;23.20;9.45;;;9.30;99.90;;;;;;5058717;28;20424;-72
2023/12/16 11:36:51;;;;;;;34.40;9.95;;;9.30;99.90;;;;;;5065267;28;20021;-72
2023/12/16 11:39:39;;;;;;;28.55;9.98;;;9.20;99.90;;;;;;5067720;28;20091;-72
2023/12/16 11:42:06;;;;;;;30.58;11.23;;;9.20;99.90;;;;;;5064031;28;20481;-72
2023/12/16 11:44:54;;;;;;;26.30;10.13;;;9.10;99.90;;;;;;5058044;28;20161;-73
2023/12/16 11:47:24;;;;;;;37.20;11.15;;;9.10;99.90;;;;;;5052041;28;20022;-72
2023/12/16 11:49:55;;;;;;;35.25;12.38;;;9.10;99.90;;;;;;5057904;28;20024;-73
2023/12/16 11:52:22;;;;;;;26.23;10.98;;;9.10;99.90;;;;;;5048994;28;20046;-73
2023/12/16 11:54:55;;;;;;;25.35;10.10;;;9.00;99.90;;;;;;5056859;28;20040;-73
2023/12/16 11:57:27;;;;;;;27.25;10.38;;;9.00;99.90;;;;;;5055222;28;20028;-73
2023/12/16 11:59:55;;;;;;;31.40;11.52;;;9.00;99.90;;;;;;5057930;28;20107;-73
2023/12/16 12:02:21;;;;;;;26.10;10.27;;;9.00;99.90;;;;;;5062821;28;20028;-73
2023/12/16 12:04:48;;;;;;;29.77;10.75;;;9.00;99.90;;;;;;5060504;28;20032;-73
2023/12/16 12:07:14;;;;;;;28.05;11.38;;;9.00;99.90;;;;;;5057871;28;20029;-73
2023/12/16 12:09:41;;;;;;;32.67;12.32;;;9.00;99.90;;;;;;5055275;28;20021;-73
2023/12/16 12:12:08;;;;;;;25.30;12.20;;;9.00;99.90;;;;;;5075335;28;20024;-73
2023/12/16 12:14:36;;;;;;;32.17;11.50;;;8.90;99.90;;;;;;5074477;28;20024;-73
2023/12/16 12:17:03;;;;;;;33.45;12.25;;;9.00;99.90;;;;;;5076693;28;20036;-73
2023/12/16 12:19:29;;;;;;;32.05;11.60;;;8.90;99.90;;;;;;5067293;28;20016;-73
2023/12/16 12:21:55;;;;;;;36.47;12.20;;;8.90;99.90;;;;;;5071912;28;20107;-73
2023/12/16 12:24:20;;;;;;;26.60;11.13;;;8.90;99.90;;;;;;5072200;28;20488;-73
2023/12/16 12:26:46;;;;;;;27.40;12.00;;;8.90;99.90;;;;;;5066285;28;20043;-73
2023/12/16 12:29:11;;;;;;;33.60;13.95;;;8.90;99.90;;;;;;5079136;28;20056;-72
2023/12/16 12:31:45;;;;;;;30.45;13.07;;;8.90;99.90;;;;;;5069158;28;20029;-73
2023/12/16 12:34:19;;;;;;;35.53;12.85;;;8.80;99.90;;;;;;5059861;28;22722;-73
2023/12/16 12:36:46;;;;;;;42.72;14.38;;;8.80;99.90;;;;;;5075327;28;20028;-73
2023/12/16 12:39:18;;;;;;;32.78;13.90;;;8.70;99.90;;;;;;5076516;28;20464;-73
2023/12/16 12:41:44;;;;;;;36.75;13.57;;;8.80;99.90;;;;;;5064166;28;20033;-71
2023/12/16 12:44:13;;;;;;;33.78;14.38;;;8.80;99.90;;;;;;5060546;28;20051;-72